sensor_id;sensor_type;location;lat;lon;timestamp;temperature;humidity
22917;DHT22;11624;53.250;7.456;2023-07-31T00:01:39;22.92;56.56
22917;DHT22;11624;53.250;7.456;2023-07-31T00:04:08;22.98;56.36
22917;DHT22;11624;53.250;7.456;2023-07-31T00:06:38;22.92;56.36
22917;DHT22;11624;53.250;7.456;2023-07-31T00:09:06;22.85;56.47
22917;DHT22;11624;53.250;7.456;2023-07-31T00:11:35;22.82;56.36
22917;DHT22;11624;53.250;7.456;2023-07-31T00:14:03;22.83;56.30
22917;DHT22;11624;53.250;7.456;2023-07-31T00:16:32;22.84;56.07
22917;DHT22;11624;53.250;7.456;2023-07-31T00:19:00;22.76;55.97
22917;DHT22;11624;53.250;7.456;2023-07-31T00:21:28;22.73;55.78
22917;DHT22;11624;53.250;7.456;2023-07-31T00:23:58;22.68;55.64
22917;DHT22;11624;53.250;7.456;2023-07-31T00:26:27;22.58;55.81
22917;DHT22;11624;53.250;7.456;2023-07-31T00:28:55;22.39;56.45
22917;DHT22;11624;53.250;7.456;2023-07-31T00:31:23;22.38;56.48
22917;DHT22;11624;53.250;7.456;2023-07-31T00:33:52;22.36;56.63
22917;DHT22;11624;53.250;7.456;2023-07-31T00:36:20;22.37;56.58
22917;DHT22;11624;53.250;7.456;2023-07-31T00:38:48;22.39;56.49
22917;DHT22;11624;53.250;7.456;2023-07-31T00:41:18;22.33;56.57
22917;DHT22;11624;53.250;7.456;2023-07-31T00:43:48;22.32;56.45
22917;DHT22;11624;53.250;7.456;2023-07-31T00:46:16;22.36;56.46
22917;DHT22;11624;53.250;7.456;2023-07-31T00:48:45;22.29;56.62
22917;DHT22;11624;53.250;7.456;2023-07-31T00:51:14;22.26;56.75
22917;DHT22;11624;53.250;7.456;2023-07-31T00:53:42;22.18;56.97
22917;DHT22;11624;53.250;7.456;2023-07-31T00:56:11;22.19;56.97
22917;DHT22;11624;53.250;7.456;2023-07-31T00:58:41;22.34;56.47
22917;DHT22;11624;53.250;7.456;2023-07-31T01:01:09;22.35;56.43
22917;DHT22;11624;53.250;7.456;2023-07-31T01:03:38;22.34;56.53
22917;DHT22;11624;53.250;7.456;2023-07-31T01:06:14;22.34;56.45
22917;DHT22;11624;53.250;7.456;2023-07-31T01:08:48;22.28;56.54
22917;DHT22;11624;53.250;7.456;2023-07-31T01:11:24;22.31;56.78
22917;DHT22;11624;53.250;7.456;2023-07-31T01:13:55;22.31;56.87
22917;DHT22;11624;53.250;7.456;2023-07-31T01:16:24;22.24;57.26
22917;DHT22;11624;53.250;7.456;2023-07-31T01:18:53;22.26;57.20
22917;DHT22;11624;53.250;7.456;2023-07-31T01:21:40;22.14;57.21
22917;DHT22;11624;53.250;7.456;2023-07-31T01:24:20;22.09;57.19
22917;DHT22;11624;53.250;7.456;2023-07-31T01:26:53;22.07;57.64
22917;DHT22;11624;53.250;7.456;2023-07-31T01:29:37;22.02;57.92
22917;DHT22;11624;53.250;7.456;2023-07-31T01:32:09;22.04;58.37
22917;DHT22;11624;53.250;7.456;2023-07-31T01:34:39;22.07;58.45
22917;DHT22;11624;53.250;7.456;2023-07-31T01:37:09;22.06;58.55
22917;DHT22;11624;53.250;7.456;2023-07-31T01:39:37;22.05;58.62
22917;DHT22;11624;53.250;7.456;2023-07-31T01:42:07;22.01;58.64
22917;DHT22;11624;53.250;7.456;2023-07-31T01:44:35;21.91;59.06
22917;DHT22;11624;53.250;7.456;2023-07-31T01:47:05;21.91;59.11
22917;DHT22;11624;53.250;7.456;2023-07-31T01:49:33;21.90;59.19
22917;DHT22;11624;53.250;7.456;2023-07-31T01:52:02;21.90;59.25
22917;DHT22;11624;53.250;7.456;2023-07-31T01:54:30;21.85;59.34
22917;DHT22;11624;53.250;7.456;2023-07-31T01:56:58;21.78;59.46
22917;DHT22;11624;53.250;7.456;2023-07-31T01:59:27;21.74;59.73
22917;DHT22;11624;53.250;7.456;2023-07-31T02:01:56;21.65;60.17
22917;DHT22;11624;53.250;7.456;2023-07-31T02:04:24;21.64;60.29
22917;DHT22;11624;53.250;7.456;2023-07-31T02:06:52;21.68;60.10
22917;DHT22;11624;53.250;7.456;2023-07-31T02:09:21;21.72;60.10
22917;DHT22;11624;53.250;7.456;2023-07-31T02:11:49;21.74;60.19
22917;DHT22;11624;53.250;7.456;2023-07-31T02:14:17;21.76;60.22
22917;DHT22;11624;53.250;7.456;2023-07-31T02:16:46;21.77;60.32
22917;DHT22;11624;53.250;7.456;2023-07-31T02:19:14;21.79;60.27
22917;DHT22;11624;53.250;7.456;2023-07-31T02:21:43;21.77;60.36
22917;DHT22;11624;53.250;7.456;2023-07-31T02:24:11;21.81;60.29
22917;DHT22;11624;53.250;7.456;2023-07-31T02:26:39;21.84;60.22
22917;DHT22;11624;53.250;7.456;2023-07-31T02:29:09;21.83;60.27
22917;DHT22;11624;53.250;7.456;2023-07-31T02:31:37;21.87;60.19
22917;DHT22;11624;53.250;7.456;2023-07-31T02:34:06;21.88;60.17
22917;DHT22;11624;53.250;7.456;2023-07-31T02:36:34;21.84;60.33
22917;DHT22;11624;53.250;7.456;2023-07-31T02:39:03;21.82;60.36
22917;DHT22;11624;53.250;7.456;2023-07-31T02:41:31;21.80;60.44
22917;DHT22;11624;53.250;7.456;2023-07-31T02:43:59;21.79;60.52
22917;DHT22;11624;53.250;7.456;2023-07-31T02:46:27;21.76;60.63
22917;DHT22;11624;53.250;7.456;2023-07-31T02:48:55;21.79;60.65
22917;DHT22;11624;53.250;7.456;2023-07-31T02:51:25;21.76;60.73
22917;DHT22;11624;53.250;7.456;2023-07-31T02:53:53;21.72;60.85
22917;DHT22;11624;53.250;7.456;2023-07-31T02:56:21;21.73;60.82
22917;DHT22;11624;53.250;7.456;2023-07-31T02:58:50;21.73;60.81
22917;DHT22;11624;53.250;7.456;2023-07-31T03:01:18;21.66;61.12
22917;DHT22;11624;53.250;7.456;2023-07-31T03:03:46;21.66;61.17
22917;DHT22;11624;53.250;7.456;2023-07-31T03:06:14;21.70;61.01
22917;DHT22;11624;53.250;7.456;2023-07-31T03:08:43;21.66;61.23
22917;DHT22;11624;53.250;7.456;2023-07-31T03:11:11;21.69;61.17
22917;DHT22;11624;53.250;7.456;2023-07-31T03:13:40;21.75;61.09
22917;DHT22;11624;53.250;7.456;2023-07-31T03:16:08;21.76;61.05
22917;DHT22;11624;53.250;7.456;2023-07-31T03:18:36;21.74;61.16
22917;DHT22;11624;53.250;7.456;2023-07-31T03:21:04;21.72;61.25
22917;DHT22;11624;53.250;7.456;2023-07-31T03:23:32;21.75;61.16
22917;DHT22;11624;53.250;7.456;2023-07-31T03:26:07;21.76;61.01
22917;DHT22;11624;53.250;7.456;2023-07-31T03:28:35;21.74;61.25
22917;DHT22;11624;53.250;7.456;2023-07-31T03:31:04;21.72;61.28
22917;DHT22;11624;53.250;7.456;2023-07-31T03:33:32;21.72;61.28
22917;DHT22;11624;53.250;7.456;2023-07-31T03:36:01;21.75;61.28
22917;DHT22;11624;53.250;7.456;2023-07-31T03:38:29;21.78;61.25
22917;DHT22;11624;53.250;7.456;2023-07-31T03:40:57;21.78;61.27
22917;DHT22;11624;53.250;7.456;2023-07-31T03:43:27;21.76;61.29
22917;DHT22;11624;53.250;7.456;2023-07-31T03:45:56;21.77;61.30
22917;DHT22;11624;53.250;7.456;2023-07-31T03:48:24;21.76;61.41
22917;DHT22;11624;53.250;7.456;2023-07-31T03:50:53;21.76;61.48
22917;DHT22;11624;53.250;7.456;2023-07-31T03:53:21;21.79;61.41
22917;DHT22;11624;53.250;7.456;2023-07-31T03:55:49;21.84;61.31
22917;DHT22;11624;53.250;7.456;2023-07-31T03:58:17;21.76;61.56
22917;DHT22;11624;53.250;7.456;2023-07-31T04:00:47;21.68;61.85
22917;DHT22;11624;53.250;7.456;2023-07-31T04:03:15;21.73;61.79
22917;DHT22;11624;53.250;7.456;2023-07-31T04:05:44;21.75;61.67
22917;DHT22;11624;53.250;7.456;2023-07-31T04:08:12;21.76;61.70
22917;DHT22;11624;53.250;7.456;2023-07-31T04:10:40;21.79;61.67
22917;DHT22;11624;53.250;7.456;2023-07-31T04:13:08;21.83;61.57
22917;DHT22;11624;53.250;7.456;2023-07-31T04:15:36;21.81;61.68
22917;DHT22;11624;53.250;7.456;2023-07-31T04:18:06;21.84;61.65
22917;DHT22;11624;53.250;7.456;2023-07-31T04:20:34;21.87;61.58
22917;DHT22;11624;53.250;7.456;2023-07-31T04:23:02;21.94;61.46
22917;DHT22;11624;53.250;7.456;2023-07-31T04:25:30;21.97;61.38
22917;DHT22;11624;53.250;7.456;2023-07-31T04:27:58;22.01;61.35
22917;DHT22;11624;53.250;7.456;2023-07-31T04:30:26;22.03;61.18
22917;DHT22;11624;53.250;7.456;2023-07-31T04:32:54;21.96;61.28
22917;DHT22;11624;53.250;7.456;2023-07-31T04:35:24;21.99;61.24
22917;DHT22;11624;53.250;7.456;2023-07-31T04:37:52;21.99;61.27
22917;DHT22;11624;53.250;7.456;2023-07-31T04:40:21;21.99;61.30
22917;DHT22;11624;53.250;7.456;2023-07-31T04:42:49;22.04;61.25
22917;DHT22;11624;53.250;7.456;2023-07-31T04:45:17;22.05;61.31
22917;DHT22;11624;53.250;7.456;2023-07-31T04:47:45;22.06;61.17
22917;DHT22;11624;53.250;7.456;2023-07-31T04:50:13;22.06;61.25
22917;DHT22;11624;53.250;7.456;2023-07-31T04:52:43;22.05;61.38
22917;DHT22;11624;53.250;7.456;2023-07-31T04:55:11;22.08;61.38
22917;DHT22;11624;53.250;7.456;2023-07-31T04:57:39;22.13;61.36
22917;DHT22;11624;53.250;7.456;2023-07-31T05:00:08;22.11;61.47
22917;DHT22;11624;53.250;7.456;2023-07-31T05:02:36;22.16;61.37
22917;DHT22;11624;53.250;7.456;2023-07-31T05:05:04;22.17;61.33
22917;DHT22;11624;53.250;7.456;2023-07-31T05:07:32;22.21;61.09
22917;DHT22;11624;53.250;7.456;2023-07-31T05:10:02;22.21;61.08
22917;DHT22;11624;53.250;7.456;2023-07-31T05:12:30;22.17;60.98
22917;DHT22;11624;53.250;7.456;2023-07-31T05:14:58;22.16;60.99
22917;DHT22;11624;53.250;7.456;2023-07-31T05:17:26;22.13;61.10
22917;DHT22;11624;53.250;7.456;2023-07-31T05:19:55;22.16;61.06
22917;DHT22;11624;53.250;7.456;2023-07-31T05:22:23;22.18;61.13
22917;DHT22;11624;53.250;7.456;2023-07-31T05:24:51;22.19;61.13
22917;DHT22;11624;53.250;7.456;2023-07-31T05:27:22;22.23;61.09
22917;DHT22;11624;53.250;7.456;2023-07-31T05:29:50;22.27;61.09
22917;DHT22;11624;53.250;7.456;2023-07-31T05:32:18;22.32;61.07
22917;DHT22;11624;53.250;7.456;2023-07-31T05:34:46;22.34;61.05
22917;DHT22;11624;53.250;7.456;2023-07-31T05:37:14;22.36;60.98
22917;DHT22;11624;53.250;7.456;2023-07-31T05:39:42;22.34;60.96
22917;DHT22;11624;53.250;7.456;2023-07-31T05:42:10;22.28;61.03
22917;DHT22;11624;53.250;7.456;2023-07-31T05:44:40;22.29;61.07
22917;DHT22;11624;53.250;7.456;2023-07-31T05:47:08;22.32;61.16
22917;DHT22;11624;53.250;7.456;2023-07-31T05:49:36;22.34;61.20
22917;DHT22;11624;53.250;7.456;2023-07-31T05:52:05;22.40;61.08
22917;DHT22;11624;53.250;7.456;2023-07-31T05:54:33;22.44;61.08
22917;DHT22;11624;53.250;7.456;2023-07-31T05:57:01;22.49;61.02
22917;DHT22;11624;53.250;7.456;2023-07-31T05:59:29;22.47;61.08
22917;DHT22;11624;53.250;7.456;2023-07-31T06:02:01;22.52;61.09
22917;DHT22;11624;53.250;7.456;2023-07-31T06:04:29;22.52;61.09
22917;DHT22;11624;53.250;7.456;2023-07-31T06:06:57;22.55;61.05
22917;DHT22;11624;53.250;7.456;2023-07-31T06:09:25;22.60;61.01
22917;DHT22;11624;53.250;7.456;2023-07-31T06:11:53;22.60;60.96
22917;DHT22;11624;53.250;7.456;2023-07-31T06:14:21;22.60;61.01
22917;DHT22;11624;53.250;7.456;2023-07-31T06:16:49;22.57;61.00
22917;DHT22;11624;53.250;7.456;2023-07-31T06:19:19;22.58;61.06
22917;DHT22;11624;53.250;7.456;2023-07-31T06:21:48;22.62;61.13
22917;DHT22;11624;53.250;7.456;2023-07-31T06:24:16;22.67;61.16
22917;DHT22;11624;53.250;7.456;2023-07-31T06:26:47;22.70;61.05
22917;DHT22;11624;53.250;7.456;2023-07-31T06:29:15;22.66;61.12
22917;DHT22;11624;53.250;7.456;2023-07-31T06:31:43;22.72;61.15
22917;DHT22;11624;53.250;7.456;2023-07-31T06:34:11;22.76;61.07
22917;DHT22;11624;53.250;7.456;2023-07-31T06:36:41;22.80;61.03
22917;DHT22;11624;53.250;7.456;2023-07-31T06:39:09;22.81;61.02
22917;DHT22;11624;53.250;7.456;2023-07-31T06:41:37;22.82;61.02
22917;DHT22;11624;53.250;7.456;2023-07-31T06:44:09;22.81;61.05
22917;DHT22;11624;53.250;7.456;2023-07-31T06:46:38;22.80;61.12
22917;DHT22;11624;53.250;7.456;2023-07-31T06:49:06;22.68;61.37
22917;DHT22;11624;53.250;7.456;2023-07-31T06:51:34;22.67;61.45
22917;DHT22;11624;53.250;7.456;2023-07-31T06:54:07;22.70;61.47
22917;DHT22;11624;53.250;7.456;2023-07-31T06:56:35;22.71;61.54
22917;DHT22;11624;53.250;7.456;2023-07-31T06:59:06;22.75;61.47
22917;DHT22;11624;53.250;7.456;2023-07-31T07:01:34;22.73;61.55
22917;DHT22;11624;53.250;7.456;2023-07-31T07:04:03;22.73;61.51
22917;DHT22;11624;53.250;7.456;2023-07-31T07:06:31;22.69;61.67
22917;DHT22;11624;53.250;7.456;2023-07-31T07:08:59;22.72;61.88
22917;DHT22;11624;53.250;7.456;2023-07-31T07:11:28;22.78;61.96
22917;DHT22;11624;53.250;7.456;2023-07-31T07:13:56;22.87;61.80
22917;DHT22;11624;53.250;7.456;2023-07-31T07:16:24;22.92;61.57
22917;DHT22;11624;53.250;7.456;2023-07-31T07:18:53;22.95;61.63
22917;DHT22;11624;53.250;7.456;2023-07-31T07:21:31;23.01;61.58
22917;DHT22;11624;53.250;7.456;2023-07-31T07:23:59;23.09;61.35
22917;DHT22;11624;53.250;7.456;2023-07-31T07:26:28;23.10;61.21
22917;DHT22;11624;53.250;7.456;2023-07-31T07:28:56;23.10;61.39
22917;DHT22;11624;53.250;7.456;2023-07-31T07:31:27;23.13;61.43
22917;DHT22;11624;53.250;7.456;2023-07-31T07:33:55;23.15;61.48
22917;DHT22;11624;53.250;7.456;2023-07-31T07:36:24;23.24;61.39
22917;DHT22;11624;53.250;7.456;2023-07-31T07:38:52;23.28;61.50
22917;DHT22;11624;53.250;7.456;2023-07-31T07:41:20;23.37;61.53
22917;DHT22;11624;53.250;7.456;2023-07-31T07:43:49;23.49;61.32
22917;DHT22;11624;53.250;7.456;2023-07-31T07:46:18;23.47;61.38
22917;DHT22;11624;53.250;7.456;2023-07-31T07:48:47;23.43;61.35
22917;DHT22;11624;53.250;7.456;2023-07-31T07:51:24;23.43;60.95
22917;DHT22;11624;53.250;7.456;2023-07-31T07:54:19;23.43;61.42
22917;DHT22;11624;53.250;7.456;2023-07-31T07:56:48;23.45;61.44
22917;DHT22;11624;53.250;7.456;2023-07-31T07:59:17;23.46;61.38
22917;DHT22;11624;53.250;7.456;2023-07-31T08:01:45;23.47;61.50
22917;DHT22;11624;53.250;7.456;2023-07-31T08:04:14;23.49;61.45
22917;DHT22;11624;53.250;7.456;2023-07-31T08:06:42;23.51;61.31
22917;DHT22;11624;53.250;7.456;2023-07-31T08:09:10;23.50;61.25
22917;DHT22;11624;53.250;7.456;2023-07-31T08:11:38;23.52;61.16
22917;DHT22;11624;53.250;7.456;2023-07-31T08:14:06;23.52;60.98
22917;DHT22;11624;53.250;7.456;2023-07-31T08:16:36;23.43;61.04
22917;DHT22;11624;53.250;7.456;2023-07-31T08:19:05;23.29;61.25
22917;DHT22;11624;53.250;7.456;2023-07-31T08:21:33;23.32;61.17
22917;DHT22;11624;53.250;7.456;2023-07-31T08:24:01;23.20;61.80
22917;DHT22;11624;53.250;7.456;2023-07-31T08:26:29;23.27;61.73
22917;DHT22;11624;53.250;7.456;2023-07-31T08:28:57;23.34;61.90
22917;DHT22;11624;53.250;7.456;2023-07-31T08:31:27;23.46;61.92
22917;DHT22;11624;53.250;7.456;2023-07-31T08:33:57;23.64;61.73
22917;DHT22;11624;53.250;7.456;2023-07-31T08:36:26;23.66;61.49
22917;DHT22;11624;53.250;7.456;2023-07-31T08:38:56;23.68;61.15
22917;DHT22;11624;53.250;7.456;2023-07-31T08:41:24;23.56;60.89
22917;DHT22;11624;53.250;7.456;2023-07-31T08:43:53;23.57;60.90
22917;DHT22;11624;53.250;7.456;2023-07-31T08:46:23;23.50;60.44
22917;DHT22;11624;53.250;7.456;2023-07-31T08:48:51;23.36;60.78
22917;DHT22;11624;53.250;7.456;2023-07-31T08:51:22;23.26;61.08
22917;DHT22;11624;53.250;7.456;2023-07-31T08:53:50;23.25;61.09
22917;DHT22;11624;53.250;7.456;2023-07-31T08:56:18;23.26;61.51
22917;DHT22;11624;53.250;7.456;2023-07-31T08:58:47;23.34;61.47
22917;DHT22;11624;53.250;7.456;2023-07-31T09:01:17;23.35;61.31
22917;DHT22;11624;53.250;7.456;2023-07-31T09:03:46;23.34;61.70
22917;DHT22;11624;53.250;7.456;2023-07-31T09:06:17;23.42;61.54
22917;DHT22;11624;53.250;7.456;2023-07-31T09:08:47;23.53;61.67
22917;DHT22;11624;53.250;7.456;2023-07-31T09:11:17;23.66;61.31
22917;DHT22;11624;53.250;7.456;2023-07-31T09:13:45;23.58;60.86
22917;DHT22;11624;53.250;7.456;2023-07-31T09:16:14;23.57;61.12
22917;DHT22;11624;53.250;7.456;2023-07-31T09:18:53;23.66;60.54
22917;DHT22;11624;53.250;7.456;2023-07-31T09:21:23;23.79;61.04
22917;DHT22;11624;53.250;7.456;2023-07-31T09:23:54;23.81;60.93
22917;DHT22;11624;53.250;7.456;2023-07-31T09:26:29;23.82;60.15
22917;DHT22;11624;53.250;7.456;2023-07-31T09:28:58;23.76;60.70
22917;DHT22;11624;53.250;7.456;2023-07-31T09:31:33;23.80;60.12
22917;DHT22;11624;53.250;7.456;2023-07-31T09:34:06;23.87;60.44
22917;DHT22;11624;53.250;7.456;2023-07-31T09:36:40;23.95;59.99
22917;DHT22;11624;53.250;7.456;2023-07-31T09:39:12;24.00;59.73
22917;DHT22;11624;53.250;7.456;2023-07-31T09:41:42;24.06;60.38
22917;DHT22;11624;53.250;7.456;2023-07-31T09:44:11;24.19;60.21
22917;DHT22;11624;53.250;7.456;2023-07-31T09:46:41;24.12;60.10
22917;DHT22;11624;53.250;7.456;2023-07-31T09:49:11;24.16;60.02
22917;DHT22;11624;53.250;7.456;2023-07-31T09:51:41;24.24;59.82
22917;DHT22;11624;53.250;7.456;2023-07-31T09:54:11;24.29;59.79
22917;DHT22;11624;53.250;7.456;2023-07-31T09:56:43;24.29;59.52
22917;DHT22;11624;53.250;7.456;2023-07-31T09:59:13;24.38;59.80
22917;DHT22;11624;53.250;7.456;2023-07-31T10:01:42;24.49;59.89
22917;DHT22;11624;53.250;7.456;2023-07-31T10:04:11;24.51;59.23
22917;DHT22;11624;53.250;7.456;2023-07-31T10:06:42;24.49;59.20
22917;DHT22;11624;53.250;7.456;2023-07-31T10:09:15;24.48;58.92
22917;DHT22;11624;53.250;7.456;2023-07-31T10:11:48;24.43;59.34
22917;DHT22;11624;53.250;7.456;2023-07-31T10:14:18;24.42;59.46
22917;DHT22;11624;53.250;7.456;2023-07-31T10:16:48;24.38;59.51
22917;DHT22;11624;53.250;7.456;2023-07-31T10:19:17;24.39;59.58
22917;DHT22;11624;53.250;7.456;2023-07-31T10:21:46;24.40;59.67
22917;DHT22;11624;53.250;7.456;2023-07-31T10:24:17;24.42;59.57
22917;DHT22;11624;53.250;7.456;2023-07-31T10:26:47;24.36;59.67
22917;DHT22;11624;53.250;7.456;2023-07-31T10:29:17;24.38;59.86
22917;DHT22;11624;53.250;7.456;2023-07-31T10:31:47;24.40;59.63
22917;DHT22;11624;53.250;7.456;2023-07-31T10:34:16;24.46;59.83
22917;DHT22;11624;53.250;7.456;2023-07-31T10:36:45;24.45;59.78
22917;DHT22;11624;53.250;7.456;2023-07-31T10:39:36;24.51;59.58
22917;DHT22;11624;53.250;7.456;2023-07-31T10:42:12;24.64;59.41
22917;DHT22;11624;53.250;7.456;2023-07-31T10:44:44;24.70;59.51
22917;DHT22;11624;53.250;7.456;2023-07-31T10:47:14;24.65;59.69
22917;DHT22;11624;53.250;7.456;2023-07-31T10:49:45;24.70;59.80
22917;DHT22;11624;53.250;7.456;2023-07-31T10:52:14;24.66;59.84
22917;DHT22;11624;53.250;7.456;2023-07-31T10:55:13;24.66;59.90
22917;DHT22;11624;53.250;7.456;2023-07-31T10:57:44;24.77;60.13
22917;DHT22;11624;53.250;7.456;2023-07-31T11:00:21;24.75;59.87
22917;DHT22;11624;53.250;7.456;2023-07-31T11:02:57;24.86;59.54
22917;DHT22;11624;53.250;7.456;2023-07-31T11:05:51;25.03;59.81
22917;DHT22;11624;53.250;7.456;2023-07-31T11:08:22;25.17;59.47
22917;DHT22;11624;53.250;7.456;2023-07-31T11:11:05;25.17;58.88
22917;DHT22;11624;53.250;7.456;2023-07-31T11:13:39;25.17;59.40
22917;DHT22;11624;53.250;7.456;2023-07-31T11:16:08;25.39;59.91
22917;DHT22;11624;53.250;7.456;2023-07-31T11:18:39;25.58;59.41
22917;DHT22;11624;53.250;7.456;2023-07-31T11:21:07;25.71;58.62
22917;DHT22;11624;53.250;7.456;2023-07-31T11:23:37;25.65;58.40
22917;DHT22;11624;53.250;7.456;2023-07-31T11:26:07;25.63;58.54
22917;DHT22;11624;53.250;7.456;2023-07-31T11:28:35;25.44;58.77
22917;DHT22;11624;53.250;7.456;2023-07-31T11:31:05;25.34;58.76
22917;DHT22;11624;53.250;7.456;2023-07-31T11:33:36;25.32;59.07
22917;DHT22;11624;53.250;7.456;2023-07-31T11:36:05;25.27;59.39
22917;DHT22;11624;53.250;7.456;2023-07-31T11:38:34;25.14;59.59
22917;DHT22;11624;53.250;7.456;2023-07-31T11:41:03;25.10;59.71
22917;DHT22;11624;53.250;7.456;2023-07-31T11:43:33;25.14;59.93
22917;DHT22;11624;53.250;7.456;2023-07-31T11:46:03;25.16;60.21
22917;DHT22;11624;53.250;7.456;2023-07-31T11:48:35;25.23;60.54
22917;DHT22;11624;53.250;7.456;2023-07-31T11:51:05;25.39;60.91
22917;DHT22;11624;53.250;7.456;2023-07-31T11:53:37;25.56;60.12
22917;DHT22;11624;53.250;7.456;2023-07-31T11:56:07;25.64;60.54
22917;DHT22;11624;53.250;7.456;2023-07-31T11:58:41;25.65;59.98
22917;DHT22;11624;53.250;7.456;2023-07-31T12:01:10;25.60;59.98
22917;DHT22;11624;53.250;7.456;2023-07-31T12:03:42;25.54;59.79
22917;DHT22;11624;53.250;7.456;2023-07-31T12:06:12;25.36;60.06
22917;DHT22;11624;53.250;7.456;2023-07-31T12:08:41;25.28;60.28
22917;DHT22;11624;53.250;7.456;2023-07-31T12:11:09;25.27;60.30
22917;DHT22;11624;53.250;7.456;2023-07-31T12:13:39;25.22;60.40
22917;DHT22;11624;53.250;7.456;2023-07-31T12:16:07;25.22;60.60
22917;DHT22;11624;53.250;7.456;2023-07-31T12:18:36;25.25;60.67
22917;DHT22;11624;53.250;7.456;2023-07-31T12:21:06;25.31;60.43
22917;DHT22;11624;53.250;7.456;2023-07-31T12:23:36;25.34;60.43
22917;DHT22;11624;53.250;7.456;2023-07-31T12:26:05;25.43;60.54
22917;DHT22;11624;53.250;7.456;2023-07-31T12:28:40;25.50;60.34
22917;DHT22;11624;53.250;7.456;2023-07-31T12:31:09;25.59;60.60
22917;DHT22;11624;53.250;7.456;2023-07-31T12:33:40;25.59;60.62
22917;DHT22;11624;53.250;7.456;2023-07-31T12:36:10;25.72;60.62
22917;DHT22;11624;53.250;7.456;2023-07-31T12:38:39;25.81;60.18
22917;DHT22;11624;53.250;7.456;2023-07-31T12:41:07;25.66;59.94
22917;DHT22;11624;53.250;7.456;2023-07-31T12:43:36;25.56;60.18
22917;DHT22;11624;53.250;7.456;2023-07-31T12:46:07;25.62;60.31
22917;DHT22;11624;53.250;7.456;2023-07-31T12:48:36;25.69;60.43
22917;DHT22;11624;53.250;7.456;2023-07-31T12:51:05;25.76;60.28
22917;DHT22;11624;53.250;7.456;2023-07-31T12:53:34;25.77;59.64
22917;DHT22;11624;53.250;7.456;2023-07-31T12:56:03;25.69;59.56
22917;DHT22;11624;53.250;7.456;2023-07-31T12:58:31;25.68;59.38
22917;DHT22;11624;53.250;7.456;2023-07-31T13:00:59;25.58;59.41
22917;DHT22;11624;53.250;7.456;2023-07-31T13:03:30;25.54;59.34
22917;DHT22;11624;53.250;7.456;2023-07-31T13:05:58;25.45;59.61
22917;DHT22;11624;53.250;7.456;2023-07-31T13:08:26;25.35;59.92
22917;DHT22;11624;53.250;7.456;2023-07-31T13:10:54;25.42;60.31
22917;DHT22;11624;53.250;7.456;2023-07-31T13:13:23;25.53;60.60
22917;DHT22;11624;53.250;7.456;2023-07-31T13:15:51;25.73;60.57
22917;DHT22;11624;53.250;7.456;2023-07-31T13:18:19;25.82;60.28
22917;DHT22;11624;53.250;7.456;2023-07-31T13:20:49;25.82;59.99
22917;DHT22;11624;53.250;7.456;2023-07-31T13:23:17;25.84;59.93
22917;DHT22;11624;53.250;7.456;2023-07-31T13:25:45;25.87;59.71
22917;DHT22;11624;53.250;7.456;2023-07-31T13:28:13;25.83;59.45
22917;DHT22;11624;53.250;7.456;2023-07-31T13:30:42;25.83;59.57
22917;DHT22;11624;53.250;7.456;2023-07-31T13:33:10;25.83;59.62
22917;DHT22;11624;53.250;7.456;2023-07-31T13:36:00;25.86;59.53
22917;DHT22;11624;53.250;7.456;2023-07-31T13:38:28;25.86;59.49
22917;DHT22;11624;53.250;7.456;2023-07-31T13:40:57;25.80;59.35
22917;DHT22;11624;53.250;7.456;2023-07-31T13:43:26;25.81;59.51
22917;DHT22;11624;53.250;7.456;2023-07-31T13:45:54;25.76;59.57
22917;DHT22;11624;53.250;7.456;2023-07-31T13:48:22;25.69;59.70
22917;DHT22;11624;53.250;7.456;2023-07-31T13:50:50;25.67;59.67
22917;DHT22;11624;53.250;7.456;2023-07-31T13:53:20;25.54;59.81
22917;DHT22;11624;53.250;7.456;2023-07-31T13:55:48;25.52;59.70
22917;DHT22;11624;53.250;7.456;2023-07-31T13:58:17;25.38;59.80
22917;DHT22;11624;53.250;7.456;2023-07-31T14:00:45;25.35;59.95
22917;DHT22;11624;53.250;7.456;2023-07-31T14:03:14;25.38;60.09
22917;DHT22;11624;53.250;7.456;2023-07-31T14:05:42;25.24;60.15
22917;DHT22;11624;53.250;7.456;2023-07-31T14:08:13;25.19;60.56
22917;DHT22;11624;53.250;7.456;2023-07-31T14:10:42;25.23;60.66
22917;DHT22;11624;53.250;7.456;2023-07-31T14:13:10;25.37;60.44
22917;DHT22;11624;53.250;7.456;2023-07-31T14:15:41;25.45;60.13
22917;DHT22;11624;53.250;7.456;2023-07-31T14:18:11;25.51;60.42
22917;DHT22;11624;53.250;7.456;2023-07-31T14:20:40;25.68;60.26
22917;DHT22;11624;53.250;7.456;2023-07-31T14:23:11;25.84;59.96
22917;DHT22;11624;53.250;7.456;2023-07-31T14:25:57;25.99;59.50
22917;DHT22;11624;53.250;7.456;2023-07-31T14:29:35;26.31;58.84
22917;DHT22;11624;53.250;7.456;2023-07-31T14:32:04;26.48;58.43
22917;DHT22;11624;53.250;7.456;2023-07-31T14:34:35;26.54;57.79
22917;DHT22;11624;53.250;7.456;2023-07-31T14:37:11;26.54;57.30
22917;DHT22;11624;53.250;7.456;2023-07-31T14:39:40;26.40;57.29
22917;DHT22;11624;53.250;7.456;2023-07-31T14:42:09;26.47;56.84
22917;DHT22;11624;53.250;7.456;2023-07-31T14:44:38;26.48;56.90
22917;DHT22;11624;53.250;7.456;2023-07-31T14:47:09;26.47;56.87
22917;DHT22;11624;53.250;7.456;2023-07-31T14:49:37;26.48;57.04
22917;DHT22;11624;53.250;7.456;2023-07-31T14:52:06;26.50;57.10
22917;DHT22;11624;53.250;7.456;2023-07-31T14:54:35;26.54;57.02
22917;DHT22;11624;53.250;7.456;2023-07-31T14:57:03;26.51;56.87
22917;DHT22;11624;53.250;7.456;2023-07-31T14:59:35;26.55;56.56
22917;DHT22;11624;53.250;7.456;2023-07-31T15:02:03;26.43;56.54
22917;DHT22;11624;53.250;7.456;2023-07-31T15:04:32;26.56;56.52
22917;DHT22;11624;53.250;7.456;2023-07-31T15:07:00;26.61;56.59
22917;DHT22;11624;53.250;7.456;2023-07-31T15:09:28;26.63;56.61
22917;DHT22;11624;53.250;7.456;2023-07-31T15:11:57;26.63;56.49
22917;DHT22;11624;53.250;7.456;2023-07-31T15:14:25;26.69;56.15
22917;DHT22;11624;53.250;7.456;2023-07-31T15:16:57;26.71;56.35
22917;DHT22;11624;53.250;7.456;2023-07-31T15:19:25;26.66;56.15
22917;DHT22;11624;53.250;7.456;2023-07-31T15:21:53;26.72;56.02
22917;DHT22;11624;53.250;7.456;2023-07-31T15:24:21;26.65;56.05
22917;DHT22;11624;53.250;7.456;2023-07-31T15:26:49;26.66;55.95
22917;DHT22;11624;53.250;7.456;2023-07-31T15:29:19;26.67;55.84
22917;DHT22;11624;53.250;7.456;2023-07-31T15:31:47;26.62;55.36
22917;DHT22;11624;53.250;7.456;2023-07-31T15:34:17;26.62;55.26
22917;DHT22;11624;53.250;7.456;2023-07-31T15:36:46;26.67;55.38
22917;DHT22;11624;53.250;7.456;2023-07-31T15:39:14;26.60;55.50
22917;DHT22;11624;53.250;7.456;2023-07-31T15:41:43;26.57;55.23
22917;DHT22;11624;53.250;7.456;2023-07-31T15:44:11;26.56;55.28
22917;DHT22;11624;53.250;7.456;2023-07-31T15:46:39;26.61;55.45